sensor_id;sensor_type;location;lat;lon;timestamp;temperature;humidity
12578;DHT22;6354;51.026;8.968;2022-12-07T00:01:18;3.90;99.90
12578;DHT22;6354;51.026;8.968;2022-12-07T00:03:47;3.90;99.90
12578;DHT22;6354;51.026;8.968;2022-12-07T00:06:18;3.90;99.90
12578;DHT22;6354;51.026;8.968;2022-12-07T00:08:47;3.90;99.90
12578;DHT22;6354;51.026;8.968;2022-12-07T00:11:16;3.90;99.90
12578;DHT22;6354;51.026;8.968;2022-12-07T00:13:45;3.90;99.90
12578;DHT22;6354;51.026;8.968;2022-12-07T00:16:16;3.90;99.90
12578;DHT22;6354;51.026;8.968;2022-12-07T00:18:45;3.90;99.90
12578;DHT22;6354;51.026;8.968;2022-12-07T00:21:14;3.90;99.90
12578;DHT22;6354;51.026;8.968;2022-12-07T00:23:45;3.90;99.90
12578;DHT22;6354;51.026;8.968;2022-12-07T00:26:15;3.90;99.90
12578;DHT22;6354;51.026;8.968;2022-12-07T00:28:46;3.90;99.90
12578;DHT22;6354;51.026;8.968;2022-12-07T00:31:16;3.90;99.90
12578;DHT22;6354;51.026;8.968;2022-12-07T00:33:45;3.90;99.90
12578;DHT22;6354;51.026;8.968;2022-12-07T00:36:16;3.90;99.90
12578;DHT22;6354;51.026;8.968;2022-12-07T00:38:53;3.80;99.90
12578;DHT22;6354;51.026;8.968;2022-12-07T00:41:23;3.90;99.90
12578;DHT22;6354;51.026;8.968;2022-12-07T00:43:52;4.00;99.90
12578;DHT22;6354;51.026;8.968;2022-12-07T00:46:20;3.90;99.90
12578;DHT22;6354;51.026;8.968;2022-12-07T00:48:49;3.90;99.90
12578;DHT22;6354;51.026;8.968;2022-12-07T00:51:20;3.90;99.90
12578;DHT22;6354;51.026;8.968;2022-12-07T00:53:49;3.90;99.90
12578;DHT22;6354;51.026;8.968;2022-12-07T00:56:20;3.90;99.90
12578;DHT22;6354;51.026;8.968;2022-12-07T00:58:52;3.90;99.90
12578;DHT22;6354;51.026;8.968;2022-12-07T01:01:21;3.90;99.90
12578;DHT22;6354;51.026;8.968;2022-12-07T01:03:49;3.80;99.90
12578;DHT22;6354;51.026;8.968;2022-12-07T01:06:19;3.80;99.90
12578;DHT22;6354;51.026;8.968;2022-12-07T01:08:47;3.80;99.90
12578;DHT22;6354;51.026;8.968;2022-12-07T01:11:19;3.90;99.90
12578;DHT22;6354;51.026;8.968;2022-12-07T01:13:50;3.80;99.90
12578;DHT22;6354;51.026;8.968;2022-12-07T01:16:18;3.90;99.90
12578;DHT22;6354;51.026;8.968;2022-12-07T01:18:48;3.90;99.90
12578;DHT22;6354;51.026;8.968;2022-12-07T01:21:18;3.80;99.90
12578;DHT22;6354;51.026;8.968;2022-12-07T01:23:47;3.80;99.90
12578;DHT22;6354;51.026;8.968;2022-12-07T01:26:17;3.90;99.90
12578;DHT22;6354;51.026;8.968;2022-12-07T01:28:47;3.90;99.90
12578;DHT22;6354;51.026;8.968;2022-12-07T01:31:17;3.90;99.90
12578;DHT22;6354;51.026;8.968;2022-12-07T01:33:48;3.90;99.90
12578;DHT22;6354;51.026;8.968;2022-12-07T01:36:18;3.90;99.90
12578;DHT22;6354;51.026;8.968;2022-12-07T01:38:48;4.00;99.90
12578;DHT22;6354;51.026;8.968;2022-12-07T01:41:18;4.00;99.90
12578;DHT22;6354;51.026;8.968;2022-12-07T01:46:55;4.00;99.90
12578;DHT22;6354;51.026;8.968;2022-12-07T01:49:27;4.00;99.90
12578;DHT22;6354;51.026;8.968;2022-12-07T01:52:03;3.90;99.90
12578;DHT22;6354;51.026;8.968;2022-12-07T01:54:33;4.00;99.90
12578;DHT22;6354;51.026;8.968;2022-12-07T01:57:03;3.90;99.90
12578;DHT22;6354;51.026;8.968;2022-12-07T01:59:32;4.00;99.90
12578;DHT22;6354;51.026;8.968;2022-12-07T02:02:05;4.10;99.90
12578;DHT22;6354;51.026;8.968;2022-12-07T02:04:36;4.10;99.90
12578;DHT22;6354;51.026;8.968;2022-12-07T02:07:05;4.10;99.90
12578;DHT22;6354;51.026;8.968;2022-12-07T02:09:33;4.10;99.90
12578;DHT22;6354;51.026;8.968;2022-12-07T02:12:02;4.10;99.90
12578;DHT22;6354;51.026;8.968;2022-12-07T02:14:30;4.10;99.90
12578;DHT22;6354;51.026;8.968;2022-12-07T02:17:08;4.10;99.90
12578;DHT22;6354;51.026;8.968;2022-12-07T02:23:00;4.10;99.90
12578;DHT22;6354;51.026;8.968;2022-12-07T02:25:47;4.20;99.90
12578;DHT22;6354;51.026;8.968;2022-12-07T02:28:28;4.20;99.90
12578;DHT22;6354;51.026;8.968;2022-12-07T02:31:04;4.20;99.90
12578;DHT22;6354;51.026;8.968;2022-12-07T02:33:36;4.20;99.90
12578;DHT22;6354;51.026;8.968;2022-12-07T02:36:11;4.20;99.90
12578;DHT22;6354;51.026;8.968;2022-12-07T02:38:45;4.30;99.90
12578;DHT22;6354;51.026;8.968;2022-12-07T02:41:19;4.40;99.90
12578;DHT22;6354;51.026;8.968;2022-12-07T02:43:52;4.50;99.90
12578;DHT22;6354;51.026;8.968;2022-12-07T02:46:27;4.40;99.90
12578;DHT22;6354;51.026;8.968;2022-12-07T02:48:56;4.40;99.90
12578;DHT22;6354;51.026;8.968;2022-12-07T02:51:29;4.40;99.90
12578;DHT22;6354;51.026;8.968;2022-12-07T02:53:57;4.40;99.90
12578;DHT22;6354;51.026;8.968;2022-12-07T02:56:30;4.40;99.90
12578;DHT22;6354;51.026;8.968;2022-12-07T02:59:09;4.40;99.90
12578;DHT22;6354;51.026;8.968;2022-12-07T03:01:45;4.50;99.90
12578;DHT22;6354;51.026;8.968;2022-12-07T03:04:31;4.50;99.90
12578;DHT22;6354;51.026;8.968;2022-12-07T03:07:06;4.50;99.90
12578;DHT22;6354;51.026;8.968;2022-12-07T03:09:43;4.40;99.90
12578;DHT22;6354;51.026;8.968;2022-12-07T03:12:17;4.40;99.90
12578;DHT22;6354;51.026;8.968;2022-12-07T03:14:51;4.40;99.90
12578;DHT22;6354;51.026;8.968;2022-12-07T03:17:26;4.40;99.90
12578;DHT22;6354;51.026;8.968;2022-12-07T03:19:58;4.40;99.90
12578;DHT22;6354;51.026;8.968;2022-12-07T03:22:31;4.50;99.90
12578;DHT22;6354;51.026;8.968;2022-12-07T03:25:05;4.50;99.90
12578;DHT22;6354;51.026;8.968;2022-12-07T03:27:37;4.50;99.90
12578;DHT22;6354;51.026;8.968;2022-12-07T03:30:09;4.50;99.90
12578;DHT22;6354;51.026;8.968;2022-12-07T03:32:43;4.50;99.90
12578;DHT22;6354;51.026;8.968;2022-12-07T03:35:15;4.50;99.90
12578;DHT22;6354;51.026;8.968;2022-12-07T03:37:48;4.50;99.90
12578;DHT22;6354;51.026;8.968;2022-12-07T03:40:22;4.50;99.90
12578;DHT22;6354;51.026;8.968;2022-12-07T03:42:51;4.50;99.90
12578;DHT22;6354;51.026;8.968;2022-12-07T03:45:24;4.50;99.90
12578;DHT22;6354;51.026;8.968;2022-12-07T03:48:02;4.50;99.90
12578;DHT22;6354;51.026;8.968;2022-12-07T03:50:38;4.50;99.90
12578;DHT22;6354;51.026;8.968;2022-12-07T03:53:11;4.50;99.90
12578;DHT22;6354;51.026;8.968;2022-12-07T03:55:44;4.60;99.90
12578;DHT22;6354;51.026;8.968;2022-12-07T03:58:16;4.60;99.90
12578;DHT22;6354;51.026;8.968;2022-12-07T04:00:45;4.60;99.90
12578;DHT22;6354;51.026;8.968;2022-12-07T04:03:14;4.60;99.90
12578;DHT22;6354;51.026;8.968;2022-12-07T04:05:43;4.60;99.90
12578;DHT22;6354;51.026;8.968;2022-12-07T04:08:11;4.50;99.90
12578;DHT22;6354;51.026;8.968;2022-12-07T04:10:39;4.60;99.90
12578;DHT22;6354;51.026;8.968;2022-12-07T04:13:07;4.60;99.90
12578;DHT22;6354;51.026;8.968;2022-12-07T04:15:35;4.70;99.90
12578;DHT22;6354;51.026;8.968;2022-12-07T04:18:04;4.70;99.90
12578;DHT22;6354;51.026;8.968;2022-12-07T04:20:33;4.70;99.90
12578;DHT22;6354;51.026;8.968;2022-12-07T04:23:01;4.70;99.90
12578;DHT22;6354;51.026;8.968;2022-12-07T04:25:29;4.70;99.90
12578;DHT22;6354;51.026;8.968;2022-12-07T04:27:57;4.70;99.90
12578;DHT22;6354;51.026;8.968;2022-12-07T04:30:25;4.70;99.90
12578;DHT22;6354;51.026;8.968;2022-12-07T04:32:53;4.70;99.90
12578;DHT22;6354;51.026;8.968;2022-12-07T04:35:21;4.70;99.90
12578;DHT22;6354;51.026;8.968;2022-12-07T04:37:51;4.70;99.90
12578;DHT22;6354;51.026;8.968;2022-12-07T04:40:19;4.70;99.90
12578;DHT22;6354;51.026;8.968;2022-12-07T04:42:47;4.70;99.90
12578;DHT22;6354;51.026;8.968;2022-12-07T04:45:15;4.70;99.90
12578;DHT22;6354;51.026;8.968;2022-12-07T04:47:43;4.70;99.90
12578;DHT22;6354;51.026;8.968;2022-12-07T04:50:11;4.80;99.90
12578;DHT22;6354;51.026;8.968;2022-12-07T04:52:39;4.70;99.90
12578;DHT22;6354;51.026;8.968;2022-12-07T04:55:09;4.70;99.90
12578;DHT22;6354;51.026;8.968;2022-12-07T04:57:37;4.70;99.90
12578;DHT22;6354;51.026;8.968;2022-12-07T05:00:06;4.70;99.90
12578;DHT22;6354;51.026;8.968;2022-12-07T05:02:34;4.80;99.90
12578;DHT22;6354;51.026;8.968;2022-12-07T05:05:03;4.80;99.90
12578;DHT22;6354;51.026;8.968;2022-12-07T05:07:31;4.80;99.90
12578;DHT22;6354;51.026;8.968;2022-12-07T05:09:59;4.80;99.90
12578;DHT22;6354;51.026;8.968;2022-12-07T05:12:29;4.80;99.90
12578;DHT22;6354;51.026;8.968;2022-12-07T05:14:57;4.90;99.90
12578;DHT22;6354;51.026;8.968;2022-12-07T05:17:25;4.90;99.90
12578;DHT22;6354;51.026;8.968;2022-12-07T05:19:54;4.90;99.90
12578;DHT22;6354;51.026;8.968;2022-12-07T05:22:22;4.80;99.90
12578;DHT22;6354;51.026;8.968;2022-12-07T05:24:51;4.70;99.90
12578;DHT22;6354;51.026;8.968;2022-12-07T05:27:20;4.80;99.90
12578;DHT22;6354;51.026;8.968;2022-12-07T05:29:51;4.80;99.90
12578;DHT22;6354;51.026;8.968;2022-12-07T05:32:19;4.70;99.90
12578;DHT22;6354;51.026;8.968;2022-12-07T05:34:47;4.70;99.90
12578;DHT22;6354;51.026;8.968;2022-12-07T05:37:15;4.70;99.90
12578;DHT22;6354;51.026;8.968;2022-12-07T05:39:43;4.70;99.90
12578;DHT22;6354;51.026;8.968;2022-12-07T05:42:11;4.80;99.90
12578;DHT22;6354;51.026;8.968;2022-12-07T05:44:39;4.70;99.90
12578;DHT22;6354;51.026;8.968;2022-12-07T05:47:09;4.80;99.90
12578;DHT22;6354;51.026;8.968;2022-12-07T05:49:38;4.80;99.90
12578;DHT22;6354;51.026;8.968;2022-12-07T05:52:06;4.70;99.90
12578;DHT22;6354;51.026;8.968;2022-12-07T05:54:34;4.70;99.90
12578;DHT22;6354;51.026;8.968;2022-12-07T05:57:02;4.70;99.90
12578;DHT22;6354;51.026;8.968;2022-12-07T05:59:30;4.70;99.90
12578;DHT22;6354;51.026;8.968;2022-12-07T06:01:59;4.70;99.90
12578;DHT22;6354;51.026;8.968;2022-12-07T06:04:30;4.60;99.90
12578;DHT22;6354;51.026;8.968;2022-12-07T06:06:58;4.50;99.90
12578;DHT22;6354;51.026;8.968;2022-12-07T06:09:28;4.50;99.90
12578;DHT22;6354;51.026;8.968;2022-12-07T06:11:57;4.50;99.90
12578;DHT22;6354;51.026;8.968;2022-12-07T06:14:43;4.50;99.90
12578;DHT22;6354;51.026;8.968;2022-12-07T06:17:11;4.40;99.90
12578;DHT22;6354;51.026;8.968;2022-12-07T06:19:41;4.40;99.90
12578;DHT22;6354;51.026;8.968;2022-12-07T06:22:10;4.30;99.90
12578;DHT22;6354;51.026;8.968;2022-12-07T06:24:39;4.20;99.90
12578;DHT22;6354;51.026;8.968;2022-12-07T06:27:07;4.20;99.90
12578;DHT22;6354;51.026;8.968;2022-12-07T06:29:35;4.20;99.90
12578;DHT22;6354;51.026;8.968;2022-12-07T06:32:04;4.10;99.90
12578;DHT22;6354;51.026;8.968;2022-12-07T06:34:33;4.20;99.90
12578;DHT22;6354;51.026;8.968;2022-12-07T06:37:02;4.20;99.90
12578;DHT22;6354;51.026;8.968;2022-12-07T06:39:31;4.20;99.90
12578;DHT22;6354;51.026;8.968;2022-12-07T06:41:59;4.20;99.90
12578;DHT22;6354;51.026;8.968;2022-12-07T06:44:27;4.30;99.90
12578;DHT22;6354;51.026;8.968;2022-12-07T06:46:55;4.30;99.90
12578;DHT22;6354;51.026;8.968;2022-12-07T06:49:43;4.30;99.90
12578;DHT22;6354;51.026;8.968;2022-12-07T06:52:13;4.30;99.90
12578;DHT22;6354;51.026;8.968;2022-12-07T06:54:41;4.30;99.90
12578;DHT22;6354;51.026;8.968;2022-12-07T06:57:09;4.40;99.90
12578;DHT22;6354;51.026;8.968;2022-12-07T06:59:37;4.40;99.90
12578;DHT22;6354;51.026;8.968;2022-12-07T07:02:05;4.40;99.90
12578;DHT22;6354;51.026;8.968;2022-12-07T07:04:33;4.40;99.90
12578;DHT22;6354;51.026;8.968;2022-12-07T07:07:02;4.30;99.90
12578;DHT22;6354;51.026;8.968;2022-12-07T07:09:31;4.40;99.90
12578;DHT22;6354;51.026;8.968;2022-12-07T07:11:59;4.40;99.90
12578;DHT22;6354;51.026;8.968;2022-12-07T07:14:27;4.30;99.90
12578;DHT22;6354;51.026;8.968;2022-12-07T07:16:55;4.30;99.90
12578;DHT22;6354;51.026;8.968;2022-12-07T07:19:23;4.30;99.90
12578;DHT22;6354;51.026;8.968;2022-12-07T07:21:51;4.30;99.90
12578;DHT22;6354;51.026;8.968;2022-12-07T07:24:20;4.20;99.90
12578;DHT22;6354;51.026;8.968;2022-12-07T07:26:49;4.20;99.90
12578;DHT22;6354;51.026;8.968;2022-12-07T07:29:17;4.20;99.90
12578;DHT22;6354;51.026;8.968;2022-12-07T07:31:45;4.20;99.90
12578;DHT22;6354;51.026;8.968;2022-12-07T07:34:13;4.20;99.90
12578;DHT22;6354;51.026;8.968;2022-12-07T07:36:41;4.30;99.90
12578;DHT22;6354;51.026;8.968;2022-12-07T07:39:09;4.30;99.90
12578;DHT22;6354;51.026;8.968;2022-12-07T07:41:39;4.40;99.90
12578;DHT22;6354;51.026;8.968;2022-12-07T07:44:09;4.40;99.90
12578;DHT22;6354;51.026;8.968;2022-12-07T07:46:37;4.40;99.90
12578;DHT22;6354;51.026;8.968;2022-12-07T07:49:05;4.40;99.90
12578;DHT22;6354;51.026;8.968;2022-12-07T07:51:34;4.40;99.90
12578;DHT22;6354;51.026;8.968;2022-12-07T07:54:02;4.40;99.90
12578;DHT22;6354;51.026;8.968;2022-12-07T07:56:30;4.40;99.90
12578;DHT22;6354;51.026;8.968;2022-12-07T07:58:58;4.50;99.90
12578;DHT22;6354;51.026;8.968;2022-12-07T08:01:27;4.50;99.90
12578;DHT22;6354;51.026;8.968;2022-12-07T08:03:56;4.50;99.90
12578;DHT22;6354;51.026;8.968;2022-12-07T08:06:24;4.50;99.90
12578;DHT22;6354;51.026;8.968;2022-12-07T08:08:58;4.50;99.90
12578;DHT22;6354;51.026;8.968;2022-12-07T08:11:26;4.50;99.90
12578;DHT22;6354;51.026;8.968;2022-12-07T08:13:54;4.40;99.90
12578;DHT22;6354;51.026;8.968;2022-12-07T08:16:22;4.40;99.90
12578;DHT22;6354;51.026;8.968;2022-12-07T08:18:51;4.30;99.90
12578;DHT22;6354;51.026;8.968;2022-12-07T08:21:20;4.30;99.90
12578;DHT22;6354;51.026;8.968;2022-12-07T08:23:48;4.30;99.90
12578;DHT22;6354;51.026;8.968;2022-12-07T08:26:16;4.30;99.90
12578;DHT22;6354;51.026;8.968;2022-12-07T08:28:44;4.20;99.90
12578;DHT22;6354;51.026;8.968;2022-12-07T08:31:14;4.30;99.90
12578;DHT22;6354;51.026;8.968;2022-12-07T08:33:45;4.20;99.90
12578;DHT22;6354;51.026;8.968;2022-12-07T08:36:15;4.30;99.90
12578;DHT22;6354;51.026;8.968;2022-12-07T08:38:43;4.20;99.90
12578;DHT22;6354;51.026;8.968;2022-12-07T08:41:31;4.30;99.90
12578;DHT22;6354;51.026;8.968;2022-12-07T08:43:59;4.40;99.90
12578;DHT22;6354;51.026;8.968;2022-12-07T08:46:32;4.50;99.90
12578;DHT22;6354;51.026;8.968;2022-12-07T08:49:05;4.50;99.90
12578;DHT22;6354;51.026;8.968;2022-12-07T08:51:36;4.70;99.90
12578;DHT22;6354;51.026;8.968;2022-12-07T08:54:06;4.70;99.90
12578;DHT22;6354;51.026;8.968;2022-12-07T08:56:35;4.80;99.90
12578;DHT22;6354;51.026;8.968;2022-12-07T08:59:04;4.80;99.90
12578;DHT22;6354;51.026;8.968;2022-12-07T09:01:33;5.00;99.90
12578;DHT22;6354;51.026;8.968;2022-12-07T09:04:01;5.10;99.90
12578;DHT22;6354;51.026;8.968;2022-12-07T09:06:29;5.10;99.90
12578;DHT22;6354;51.026;8.968;2022-12-07T09:08:59;5.20;99.90
12578;DHT22;6354;51.026;8.968;2022-12-07T09:11:28;5.20;99.90
12578;DHT22;6354;51.026;8.968;2022-12-07T09:13:56;5.20;99.90
12578;DHT22;6354;51.026;8.968;2022-12-07T09:16:24;5.20;99.90
12578;DHT22;6354;51.026;8.968;2022-12-07T09:18:52;5.20;99.90
12578;DHT22;6354;51.026;8.968;2022-12-07T09:21:20;5.20;99.90
12578;DHT22;6354;51.026;8.968;2022-12-07T09:23:48;5.30;99.90
12578;DHT22;6354;51.026;8.968;2022-12-07T09:26:18;5.40;99.90
12578;DHT22;6354;51.026;8.968;2022-12-07T09:28:46;5.40;99.90
12578;DHT22;6354;51.026;8.968;2022-12-07T09:31:14;5.50;99.90
12578;DHT22;6354;51.026;8.968;2022-12-07T09:33:55;5.40;99.90
12578;DHT22;6354;51.026;8.968;2022-12-07T09:36:24;5.30;99.90
12578;DHT22;6354;51.026;8.968;2022-12-07T09:38:52;5.30;99.90
12578;DHT22;6354;51.026;8.968;2022-12-07T09:41:23;5.40;99.90
12578;DHT22;6354;51.026;8.968;2022-12-07T09:43:53;5.40;99.90
12578;DHT22;6354;51.026;8.968;2022-12-07T09:46:22;5.40;99.90
12578;DHT22;6354;51.026;8.968;2022-12-07T09:48:51;5.40;99.90
12578;DHT22;6354;51.026;8.968;2022-12-07T09:51:20;5.40;99.90
12578;DHT22;6354;51.026;8.968;2022-12-07T09:53:52;5.40;99.90
12578;DHT22;6354;51.026;8.968;2022-12-07T09:56:23;5.40;99.90
12578;DHT22;6354;51.026;8.968;2022-12-07T09:58:54;5.40;99.90
12578;DHT22;6354;51.026;8.968;2022-12-07T10:01:24;5.50;99.90
12578;DHT22;6354;51.026;8.968;2022-12-07T10:03:55;5.50;99.90
12578;DHT22;6354;51.026;8.968;2022-12-07T10:06:26;5.50;99.90
12578;DHT22;6354;51.026;8.968;2022-12-07T10:08:54;5.60;99.90
12578;DHT22;6354;51.026;8.968;2022-12-07T10:11:23;5.70;99.90
12578;DHT22;6354;51.026;8.968;2022-12-07T10:13:52;5.70;99.90
12578;DHT22;6354;51.026;8.968;2022-12-07T10:16:37;5.70;99.90
12578;DHT22;6354;51.026;8.968;2022-12-07T10:19:22;5.70;99.90
12578;DHT22;6354;51.026;8.968;2022-12-07T10:22:09;5.70;99.90
12578;DHT22;6354;51.026;8.968;2022-12-07T10:24:38;5.80;99.90
12578;DHT22;6354;51.026;8.968;2022-12-07T10:27:18;5.90;99.90
12578;DHT22;6354;51.026;8.968;2022-12-07T10:29:49;5.90;99.90
12578;DHT22;6354;51.026;8.968;2022-12-07T10:32:29;5.90;99.90
12578;DHT22;6354;51.026;8.968;2022-12-07T10:35:21;5.80;99.90
12578;DHT22;6354;51.026;8.968;2022-12-07T10:37:51;5.70;99.90
12578;DHT22;6354;51.026;8.968;2022-12-07T10:40:29;5.70;99.90
12578;DHT22;6354;51.026;8.968;2022-12-07T10:43:04;5.50;99.90
12578;DHT22;6354;51.026;8.968;2022-12-07T10:45:34;5.50;99.90
12578;DHT22;6354;51.026;8.968;2022-12-07T10:48:28;5.40;99.90
12578;DHT22;6354;51.026;8.968;2022-12-07T10:51:06;5.30;99.90
12578;DHT22;6354;51.026;8.968;2022-12-07T10:53:50;5.30;99.90
12578;DHT22;6354;51.026;8.968;2022-12-07T10:56:42;5.40;99.90
12578;DHT22;6354;51.026;8.968;2022-12-07T10:59:34;5.30;99.90
12578;DHT22;6354;51.026;8.968;2022-12-07T11:02:19;5.30;99.90
12578;DHT22;6354;51.026;8.968;2022-12-07T11:04:59;5.30;99.90
12578;DHT22;6354;51.026;8.968;2022-12-07T11:07:39;5.30;99.90
12578;DHT22;6354;51.026;8.968;2022-12-07T11:10:16;5.20;99.90
12578;DHT22;6354;51.026;8.968;2022-12-07T11:16:07;5.50;99.90
12578;DHT22;6354;51.026;8.968;2022-12-07T11:18:46;5.70;99.90
12578;DHT22;6354;51.026;8.968;2022-12-07T11:21:22;5.90;99.90
12578;DHT22;6354;51.026;8.968;2022-12-07T11:23:59;6.00;99.90
12578;DHT22;6354;51.026;8.968;2022-12-07T11:26:58;6.00;99.90
12578;DHT22;6354;51.026;8.968;2022-12-07T11:29:47;6.00;99.90
12578;DHT22;6354;51.026;8.968;2022-12-07T11:32:23;6.10;99.90
12578;DHT22;6354;51.026;8.968;2022-12-07T11:35:05;6.20;99.90
12578;DHT22;6354;51.026;8.968;2022-12-07T11:37:37;6.30;99.90
12578;DHT22;6354;51.026;8.968;2022-12-07T11:40:19;6.30;99.90
12578;DHT22;6354;51.026;8.968;2022-12-07T11:42:53;6.20;99.90
12578;DHT22;6354;51.026;8.968;2022-12-07T11:45:27;6.20;99.90
12578;DHT22;6354;51.026;8.968;2022-12-07T11:48:00;6.30;99.90
12578;DHT22;6354;51.026;8.968;2022-12-07T11:50:34;6.40;99.90
12578;DHT22;6354;51.026;8.968;2022-12-07T11:53:09;6.40;99.90
12578;DHT22;6354;51.026;8.968;2022-12-07T11:55:42;6.30;99.90
12578;DHT22;6354;51.026;8.968;2022-12-07T11:58:34;6.30;99.90
12578;DHT22;6354;51.026;8.968;2022-12-07T12:01:13;6.20;99.90
12578;DHT22;6354;51.026;8.968;2022-12-07T12:03:46;6.20;99.90
12578;DHT22;6354;51.026;8.968;2022-12-07T12:06:20;6.10;99.90
12578;DHT22;6354;51.026;8.968;2022-12-07T12:08:51;6.10;99.90
12578;DHT22;6354;51.026;8.968;2022-12-07T12:15:08;6.10;99.90
12578;DHT22;6354;51.026;8.968;2022-12-07T12:20:51;6.10;99.90
12578;DHT22;6354;51.026;8.968;2022-12-07T12:23:26;6.10;99.90
12578;DHT22;6354;51.026;8.968;2022-12-07T12:25:59;6.20;99.90
12578;DHT22;6354;51.026;8.968;2022-12-07T12:28:29;6.10;99.90
12578;DHT22;6354;51.026;8.968;2022-12-07T12:31:07;6.10;99.90
12578;DHT22;6354;51.026;8.968;2022-12-07T12:33:38;6.00;99.90
12578;DHT22;6354;51.026;8.968;2022-12-07T12:36:24;5.90;99.90
12578;DHT22;6354;51.026;8.968;2022-12-07T12:39:09;5.90;99.90
12578;DHT22;6354;51.026;8.968;2022-12-07T12:41:57;5.90;99.90
12578;DHT22;6354;51.026;8.968;2022-12-07T12:50:30;5.80;99.90
12578;DHT22;6354;51.026;8.968;2022-12-07T12:53:15;5.80;99.90
12578;DHT22;6354;51.026;8.968;2022-12-07T12:56:13;5.80;99.90
12578;DHT22;6354;51.026;8.968;2022-12-07T12:58:44;5.90;99.90
12578;DHT22;6354;51.026;8.968;2022-12-07T13:01:41;5.90;99.90
12578;DHT22;6354;51.026;8.968;2022-12-07T13:07:53;6.00;99.90
12578;DHT22;6354;51.026;8.968;2022-12-07T13:10:32;6.10;99.90
12578;DHT22;6354;51.026;8.968;2022-12-07T13:13:03;6.10;99.90
12578;DHT22;6354;51.026;8.968;2022-12-07T13:15:35;6.10;99.90
12578;DHT22;6354;51.026;8.968;2022-12-07T13:18:23;6.20;99.90
12578;DHT22;6354;51.026;8.968;2022-12-07T13:20:56;6.10;99.90
12578;DHT22;6354;51.026;8.968;2022-12-07T13:23:28;6.20;99.90
12578;DHT22;6354;51.026;8.968;2022-12-07T13:26:14;6.10;99.90
12578;DHT22;6354;51.026;8.968;2022-12-07T13:28:46;6.00;99.90
12578;DHT22;6354;51.026;8.968;2022-12-07T13:31:33;6.00;99.90
12578;DHT22;6354;51.026;8.968;2022-12-07T13:34:03;6.00;99.90
12578;DHT22;6354;51.026;8.968;2022-12-07T13:36:36;5.90;99.90
12578;DHT22;6354;51.026;8.968;2022-12-07T13:39:20;5.80;99.90
12578;DHT22;6354;51.026;8.968;2022-12-07T13:41:52;5.90;99.90
12578;DHT22;6354;51.026;8.968;2022-12-07T13:44:22;5.90;99.90
12578;DHT22;6354;51.026;8.968;2022-12-07T13:46:59;6.00;99.90
12578;DHT22;6354;51.026;8.968;2022-12-07T13:49:30;5.90;99.90
12578;DHT22;6354;51.026;8.968;2022-12-07T13:52:15;5.90;99.90
12578;DHT22;6354;51.026;8.968;2022-12-07T13:54:45;5.90;99.90
12578;DHT22;6354;51.026;8.968;2022-12-07T13:57:14;5.90;99.90
12578;DHT22;6354;51.026;8.968;2022-12-07T13:59:43;6.00;99.90
12578;DHT22;6354;51.026;8.968;2022-12-07T14:02:18;5.90;99.90
12578;DHT22;6354;51.026;8.968;2022-12-07T14:04:49;5.90;99.90
12578;DHT22;6354;51.026;8.968;2022-12-07T14:07:23;5.80;99.90
12578;DHT22;6354;51.026;8.968;2022-12-07T14:09:56;5.80;99.90
12578;DHT22;6354;51.026;8.968;2022-12-07T14:12:27;5.80;99.90
12578;DHT22;6354;51.026;8.968;2022-12-07T14:14:57;5.80;99.90
12578;DHT22;6354;51.026;8.968;2022-12-07T14:17:27;5.80;99.90
12578;DHT22;6354;51.026;8.968;2022-12-07T14:19:56;5.80;99.90
12578;DHT22;6354;51.026;8.968;2022-12-07T14:22:31;5.90;99.90
12578;DHT22;6354;51.026;8.968;2022-12-07T14:27:58;5.80;99.90
12578;DHT22;6354;51.026;8.968;2022-12-07T14:30:29;5.70;99.90
12578;DHT22;6354;51.026;8.968;2022-12-07T14:32:59;5.60;99.90
12578;DHT22;6354;51.026;8.968;2022-12-07T14:35:28;5.60;99.90
12578;DHT22;6354;51.026;8.968;2022-12-07T14:37:56;5.60;99.90
12578;DHT22;6354;51.026;8.968;2022-12-07T14:40:26;5.60;99.90
12578;DHT22;6354;51.026;8.968;2022-12-07T14:42:58;5.50;99.90
12578;DHT22;6354;51.026;8.968;2022-12-07T14:45:28;5.40;99.90
12578;DHT22;6354;51.026;8.968;2022-12-07T14:47:56;5.40;99.90
12578;DHT22;6354;51.026;8.968;2022-12-07T14:50:47;5.40;99.90
12578;DHT22;6354;51.026;8.968;2022-12-07T14:53:41;5.30;99.90
12578;DHT22;6354;51.026;8.968;2022-12-07T14:56:11;5.30;99.90
12578;DHT22;6354;51.026;8.968;2022-12-07T14:58:41;5.30;99.90
12578;DHT22;6354;51.026;8.968;2022-12-07T15:01:09;5.30;99.90
12578;DHT22;6354;51.026;8.968;2022-12-07T15:03:37;5.30;99.90
12578;DHT22;6354;51.026;8.968;2022-12-07T15:06:06;5.20;99.90
12578;DHT22;6354;51.026;8.968;2022-12-07T15:08:34;5.20;99.90
12578;DHT22;6354;51.026;8.968;2022-12-07T15:11:02;5.20;99.90
12578;DHT22;6354;51.026;8.968;2022-12-07T15:13:30;5.20;99.90
12578;DHT22;6354;51.026;8.968;2022-12-07T15:16:19;5.20;99.90
12578;DHT22;6354;51.026;8.968;2022-12-07T15:18:48;5.10;99.90
12578;DHT22;6354;51.026;8.968;2022-12-07T15:21:36;5.10;99.90
12578;DHT22;6354;51.026;8.968;2022-12-07T15:24:05;5.10;99.90
12578;DHT22;6354;51.026;8.968;2022-12-07T15:26:33;5.00;99.90
12578;DHT22;6354;51.026;8.968;2022-12-07T15:29:01;5.00;99.90
12578;DHT22;6354;51.026;8.968;2022-12-07T15:31:31;4.90;99.90
12578;DHT22;6354;51.026;8.968;2022-12-07T15:34:19;4.90;99.90
12578;DHT22;6354;51.026;8.968;2022-12-07T15:36:47;4.90;99.90
12578;DHT22;6354;51.026;8.968;2022-12-07T15:39:15;4.90;99.90
12578;DHT22;6354;51.026;8.968;2022-12-07T15:41:43;4.90;99.90
12578;DHT22;6354;51.026;8.968;2022-12-07T15:44:12;4.80;99.90
12578;DHT22;6354;51.026;8.968;2022-12-07T15:46:59;4.80;99.90
12578;DHT22;6354;51.026;8.968;2022-12-07T15:49:27;4.80;99.90
12578;DHT22;6354;51.026;8.968;2022-12-07T15:51:55;4.70;99.90
12578;DHT22;6354;51.026;8.968;2022-12-07T15:54:25;4.70;99.90
12578;DHT22;6354;51.026;8.968;2022-12-07T15:56:54;4.70;99.90
12578;DHT22;6354;51.026;8.968;2022-12-07T15:59:22;4.70;99.90
12578;DHT22;6354;51.026;8.968;2022-12-07T16:01:50;4.70;99.90
12578;DHT22;6354;51.026;8.968;2022-12-07T16:04:20;4.70;99.90
12578;DHT22;6354;51.026;8.968;2022-12-07T16:06:48;4.70;99.90
12578;DHT22;6354;51.026;8.968;2022-12-07T16:09:17;4.70;99.90
12578;DHT22;6354;51.026;8.968;2022-12-07T16:11:46;4.70;99.90
12578;DHT22;6354;51.026;8.968;2022-12-07T16:14:14;4.70;99.90
12578;DHT22;6354;51.026;8.968;2022-12-07T16:16:42;4.70;99.90
12578;DHT22;6354;51.026;8.968;2022-12-07T16:19:10;4.70;99.90
12578;DHT22;6354;51.026;8.968;2022-12-07T16:21:40;4.70;99.90
12578;DHT22;6354;51.026;8.968;2022-12-07T16:24:09;4.60;99.90
12578;DHT22;6354;51.026;8.968;2022-12-07T16:26:39;4.60;99.90
12578;DHT22;6354;51.026;8.968;2022-12-07T16:29:15;4.50;99.90
12578;DHT22;6354;51.026;8.968;2022-12-07T16:31:44;4.50;99.90
12578;DHT22;6354;51.026;8.968;2022-12-07T16:34:12;4.50;99.90
12578;DHT22;6354;51.026;8.968;2022-12-07T16:36:42;4.50;99.90
12578;DHT22;6354;51.026;8.968;2022-12-07T16:39:30;4.50;99.90
12578;DHT22;6354;51.026;8.968;2022-12-07T16:41:58;4.50;99.90
12578;DHT22;6354;51.026;8.968;2022-12-07T16:44:26;4.60;99.90
12578;DHT22;6354;51.026;8.968;2022-12-07T16:46:54;4.60;99.90
12578;DHT22;6354;51.026;8.968;2022-12-07T16:49:23;4.60;99.90
12578;DHT22;6354;51.026;8.968;2022-12-07T16:51:52;4.50;99.90
12578;DHT22;6354;51.026;8.968;2022-12-07T16:54:40;4.50;99.90
12578;DHT22;6354;51.026;8.968;2022-12-07T16:57:09;4.50;99.90
12578;DHT22;6354;51.026;8.968;2022-12-07T16:59:44;4.50;99.90
12578;DHT22;6354;51.026;8.968;2022-12-07T17:02:12;4.50;99.90